Time;durP1;ratioP1;P1;durP2;ratioP2;P2;SDS_P1;SDS_P2;PMS_P1;PMS_P2;Temp;Humidity;BMP_temperature;BMP_pressure;BME280_temperature;BME280_humidity;BME280_pressure;Samples;Min_cycle;Max_cycle;Signal;HPM_P1;HPM_P2
2022/04/03 00:01:58;;;;;;;10.95;5.50;;;0.70;99.90;;;-0.19;100.00;97726.56;4999619;28;20046;-74
2022/04/03 00:04:26;;;;;;;7.78;5.22;;;0.70;99.90;;;-0.19;100.00;97727.41;5000386;28;20125;-73
2022/04/03 00:06:54;;;;;;;8.90;5.40;;;0.70;99.90;;;-0.19;100.00;97724.84;4997571;28;20045;-74
2022/04/03 00:09:21;;;;;;;9.35;6.13;;;0.80;99.90;;;-0.18;100.00;97728.25;5001769;28;20057;-73
2022/04/03 00:11:48;;;;;;;9.93;6.47;;;0.70;99.90;;;-0.24;100.00;97727.38;4991583;28;20049;-74
2022/04/03 00:14:15;;;;;;;8.75;5.90;;;0.70;99.90;;;-0.30;100.00;97727.34;5002437;28;20053;-74
2022/04/03 00:16:42;;;;;;;10.07;5.30;;;0.70;99.90;;;-0.27;100.00;97724.84;4984675;28;20137;-74
2022/04/03 00:19:09;;;;;;;8.98;5.47;;;0.60;99.90;;;-0.31;100.00;97722.28;4997548;28;20120;-73
2022/04/03 00:21:37;;;;;;;7.32;5.63;;;0.60;99.90;;;-0.27;100.00;97719.75;4998413;28;20050;-74
2022/04/03 00:24:04;;;;;;;9.88;5.72;;;0.70;99.90;;;-0.30;100.00;97729.91;4997592;28;20129;-73
2022/04/03 00:26:31;;;;;;;9.45;6.18;;;0.60;99.90;;;-0.28;100.00;97729.94;4997645;28;20533;-73
2022/04/03 00:28:58;;;;;;;9.02;6.10;;;0.60;99.90;;;-0.28;100.00;97729.94;4998927;28;20129;-74
2022/04/03 00:31:27;;;;;;;10.55;5.78;;;0.60;99.90;;;-0.28;100.00;97728.22;4996865;28;20108;-73
2022/04/03 00:33:54;;;;;;;9.75;6.25;;;0.60;99.90;;;-0.26;100.00;97733.34;4998609;28;20062;-74
2022/04/03 00:36:21;;;;;;;10.45;6.72;;;0.60;99.90;;;-0.29;100.00;97723.97;4997189;28;20058;-73
2022/04/03 00:38:49;;;;;;;8.55;6.15;;;0.60;99.90;;;-0.30;100.00;97727.34;4999519;28;20115;-74
2022/04/03 00:41:18;;;;;;;10.02;6.05;;;0.60;99.90;;;-0.24;100.00;97734.19;4994191;28;20433;-72
2022/04/03 00:43:45;;;;;;;12.27;6.18;;;0.60;99.90;;;-0.28;100.00;97728.22;4999497;28;20153;-73
2022/04/03 00:46:18;;;;;;;8.88;6.05;;;0.60;99.90;;;-0.25;100.00;97733.34;4994429;28;20129;-73
2022/04/03 00:48:47;;;;;;;10.63;6.30;;;0.60;99.90;;;-0.28;100.00;97725.66;4999938;28;20054;-73
2022/04/03 00:51:15;;;;;;;8.75;6.10;;;0.60;99.90;;;-0.26;100.00;97725.69;5000513;28;20050;-73
2022/04/03 00:53:42;;;;;;;9.60;6.07;;;0.70;99.90;;;-0.22;100.00;97728.25;4982669;28;20136;-73
2022/04/03 00:56:08;;;;;;;9.70;6.65;;;0.70;99.90;;;-0.19;100.00;97727.41;4998078;28;20096;-73
2022/04/03 00:58:38;;;;;;;9.38;6.30;;;0.70;99.90;;;-0.26;100.00;97726.53;5001390;28;20563;-73
2022/04/03 01:01:06;;;;;;;9.90;5.72;;;0.70;99.90;;;-0.22;100.00;97725.69;4989432;28;20109;-74
2022/04/03 01:03:33;;;;;;;8.57;6.55;;;0.70;99.90;;;-0.21;100.00;97729.09;5006257;28;20117;-74
2022/04/03 01:06:00;;;;;;;14.48;7.03;;;0.70;99.90;;;-0.25;100.00;97727.38;5000854;28;20042;-73
2022/04/03 01:08:28;;;;;;;9.82;6.00;;;0.60;99.90;;;-0.19;100.00;97729.09;5033108;28;20077;-74
2022/04/03 01:10:55;;;;;;;9.30;6.53;;;0.70;99.90;;;-0.23;100.00;97721.44;5003747;28;20132;-74
2022/04/03 01:13:22;;;;;;;8.73;5.47;;;0.70;99.90;;;-0.24;100.00;97731.63;5007951;28;20084;-73
2022/04/03 01:16:00;;;;;;;9.48;5.78;;;0.70;99.90;;;-0.22;100.00;97730.78;5002903;28;20273;-73
2022/04/03 01:18:28;;;;;;;8.95;5.80;;;0.70;99.90;;;-0.12;100.00;97736.75;5006008;28;20050;-73
2022/04/03 01:20:56;;;;;;;9.38;5.40;;;0.70;99.90;;;-0.13;100.00;97731.69;5001301;28;20157;-73
2022/04/03 01:23:25;;;;;;;9.02;5.95;;;0.70;99.90;;;-0.20;100.00;97730.81;5001922;28;20046;-72
2022/04/03 01:25:52;;;;;;;7.85;5.20;;;0.70;99.90;;;-0.20;100.00;97727.41;5002856;28;20046;-73
2022/04/03 01:28:20;;;;;;;10.10;5.00;;;0.70;99.90;;;-0.15;100.00;97736.75;5004060;28;20054;-73
2022/04/03 01:30:47;;;;;;;10.55;5.95;;;0.70;99.90;;;-0.11;100.00;97728.28;5005520;28;20116;-73
2022/04/03 01:33:16;;;;;;;9.95;6.07;;;0.80;99.90;;;-0.12;100.00;97733.38;5009514;28;20045;-74
2022/04/03 01:35:44;;;;;;;7.90;5.65;;;0.80;99.90;;;-0.03;100.00;97741.88;5007066;28;20088;-73
2022/04/03 01:38:11;;;;;;;7.60;5.32;;;0.80;99.90;;;-0.20;100.00;97729.97;4987044;28;20046;-73
2022/04/03 01:40:38;;;;;;;9.50;6.30;;;0.80;99.90;;;-0.07;100.00;97736.78;5008121;28;20133;-74
2022/04/03 01:43:08;;;;;;;11.88;6.38;;;0.80;99.90;;;-0.12;100.00;97728.25;5003655;28;20081;-71
2022/04/03 01:45:37;;;;;;;9.70;5.63;;;0.80;99.90;;;-0.10;100.00;97732.53;5006464;28;20133;-72
2022/04/03 01:48:06;;;;;;;8.43;5.35;;;0.80;99.90;;;0.04;100.00;97731.69;5003896;28;20579;-74
2022/04/03 01:50:34;;;;;;;9.23;5.70;;;0.80;99.90;;;-0.03;100.00;97728.28;5006572;28;20604;-73
2022/04/03 01:53:01;;;;;;;8.52;5.32;;;0.80;99.90;;;-0.08;100.00;97732.53;5004550;28;20141;-74
2022/04/03 01:55:28;;;;;;;7.90;5.60;;;0.80;99.90;;;-0.11;100.00;97729.97;5005622;28;20081;-72
2022/04/03 01:57:56;;;;;;;8.70;5.35;;;0.80;99.90;;;-0.04;100.00;97730.00;5003120;28;20050;-74
2022/04/03 02:00:23;;;;;;;7.78;5.72;;;0.80;99.90;;;0.01;100.00;97724.06;5004969;28;20100;-73
2022/04/03 02:02:50;;;;;;;9.70;5.25;;;0.80;99.90;;;-0.05;100.00;97724.88;5002266;28;20050;-74
2022/04/03 02:05:18;;;;;;;10.27;5.63;;;0.80;99.90;;;-0.04;100.00;97727.44;5004578;28;20053;-74
2022/04/03 02:07:45;;;;;;;9.15;5.03;;;0.80;99.90;;;-0.03;100.00;97731.69;5001822;28;20070;-74
2022/04/03 02:10:12;;;;;;;7.70;5.07;;;0.80;99.90;;;0.04;100.00;97724.88;5003925;28;20129;-73
2022/04/03 02:12:40;;;;;;;8.38;5.20;;;0.80;99.90;;;-0.01;100.00;97729.13;4999869;28;20090;-74
2022/04/03 02:15:09;;;;;;;7.03;4.78;;;0.80;99.90;;;0.05;100.00;97731.72;5007240;28;20082;-72
2022/04/03 02:17:35;;;;;;;11.02;4.88;;;0.80;99.90;;;-0.02;100.00;97735.94;4989040;28;20468;-73
2022/04/03 02:20:04;;;;;;;8.88;5.25;;;0.70;99.90;;;-0.08;100.00;97732.53;5002833;28;20137;-72
2022/04/03 02:22:31;;;;;;;8.82;5.85;;;0.70;99.90;;;-0.14;100.00;97733.34;5003990;28;20054;-73
2022/04/03 02:24:58;;;;;;;7.78;5.25;;;0.70;99.90;;;-0.10;100.00;97735.06;4997591;28;20476;-73
2022/04/03 02:27:25;;;;;;;8.98;5.38;;;0.70;99.90;;;-0.14;100.00;97735.06;5002704;28;20178;-74
2022/04/03 02:29:52;;;;;;;9.10;5.65;;;0.80;99.90;;;-0.14;100.00;97737.63;5003399;28;20061;-73
2022/04/03 02:32:20;;;;;;;9.55;5.78;;;0.80;99.90;;;-0.07;100.00;97736.78;4998853;28;20142;-72
2022/04/03 02:34:47;;;;;;;7.40;5.13;;;0.80;99.90;;;-0.16;100.00;97737.63;5002544;28;20046;-73
2022/04/03 02:37:14;;;;;;;7.43;5.20;;;0.70;99.90;;;-0.17;100.00;97733.34;5003025;28;20047;-73
2022/04/03 02:39:44;;;;;;;9.80;5.38;;;0.70;99.90;;;-0.15;100.00;97739.31;5001799;28;20058;-75
2022/04/03 02:42:11;;;;;;;7.60;5.40;;;0.70;99.90;;;-0.18;100.00;97743.53;5002438;28;20644;-72
2022/04/03 02:44:38;;;;;;;10.57;5.72;;;0.70;99.90;;;-0.17;100.00;97743.56;5004467;28;20136;-73
2022/04/03 02:47:06;;;;;;;10.40;5.43;;;0.70;99.90;;;-0.17;100.00;97742.72;4997194;28;20053;-73
2022/04/03 02:49:33;;;;;;;11.77;5.22;;;0.70;99.90;;;-0.20;100.00;97741.00;4999649;28;20069;-75
2022/04/03 02:52:00;;;;;;;9.02;5.43;;;0.70;99.90;;;-0.25;100.00;97747.78;5003158;28;20145;-73
2022/04/03 02:54:27;;;;;;;10.05;5.72;;;0.70;99.90;;;-0.23;100.00;97746.09;5004709;28;20062;-73
2022/04/03 02:56:54;;;;;;;9.50;5.10;;;0.60;99.90;;;-0.26;100.00;97749.47;5017290;28;20078;-73
2022/04/03 02:59:21;;;;;;;8.77;5.43;;;0.60;99.90;;;-0.30;100.00;97745.22;5003903;28;20073;-73
2022/04/03 03:01:48;;;;;;;8.60;5.60;;;0.60;99.90;;;-0.29;100.00;97744.38;5002126;28;20516;-72
2022/04/03 03:04:15;;;;;;;11.35;5.28;;;0.60;99.90;;;-0.19;100.00;97749.50;5001346;28;20115;-73
2022/04/03 03:06:42;;;;;;;8.45;5.28;;;0.60;99.90;;;-0.28;100.00;97747.78;5003007;28;20085;-73
2022/04/03 03:09:09;;;;;;;8.73;5.20;;;0.60;99.90;;;-0.31;100.00;97751.19;5004888;28;20081;-73
2022/04/03 03:11:36;;;;;;;9.23;5.07;;;0.60;99.90;;;-0.30;100.00;97750.31;5002497;28;20046;-73
2022/04/03 03:14:03;;;;;;;12.82;5.72;;;0.60;99.90;;;-0.31;100.00;97751.19;5002806;28;20665;-72
2022/04/03 03:16:30;;;;;;;9.40;5.20;;;0.50;99.90;;;-0.34;100.00;97760.50;5000691;28;20145;-71
2022/04/03 03:18:57;;;;;;;9.27;5.47;;;0.50;99.90;;;-0.31;100.00;97747.78;5005684;28;20054;-73
2022/04/03 03:21:24;;;;;;;9.65;5.80;;;0.50;99.90;;;-0.37;100.00;97757.94;5002592;28;20064;-73
2022/04/03 03:23:51;;;;;;;7.82;5.28;;;0.50;99.90;;;-0.37;100.00;97760.50;5005977;28;20162;-73
2022/04/03 03:26:20;;;;;;;8.35;5.22;;;0.50;99.90;;;-0.43;100.00;97752.00;5000301;28;20069;-73
2022/04/03 03:28:47;;;;;;;8.90;5.15;;;0.50;99.90;;;-0.39;100.00;97763.03;5001945;28;20066;-73
2022/04/03 03:31:14;;;;;;;9.20;5.38;;;0.40;99.90;;;-0.42;100.00;97763.03;5002054;28;20048;-74
2022/04/03 03:33:41;;;;;;;9.82;5.70;;;0.40;99.90;;;-0.38;100.00;97757.09;5002966;28;20126;-73
2022/04/03 03:36:09;;;;;;;10.43;5.82;;;0.40;99.90;;;-0.47;100.00;97769.81;5000466;28;20491;-74
2022/04/03 03:38:37;;;;;;;8.88;5.93;;;0.40;99.90;;;-0.51;100.00;97765.53;5005120;28;20070;-72
2022/04/03 03:41:04;;;;;;;9.88;5.47;;;0.40;99.90;;;-0.51;100.00;97765.53;4998832;28;20071;-72
2022/04/03 03:43:31;;;;;;;11.65;5.45;;;0.40;99.90;;;-0.49;100.00;97766.41;5000278;28;20212;-73
2022/04/03 03:45:59;;;;;;;9.32;5.97;;;0.40;99.90;;;-0.45;100.00;97760.47;5008015;28;20066;-73
2022/04/03 03:48:26;;;;;;;8.40;5.80;;;0.40;99.90;;;-0.44;100.00;97763.03;5007104;28;20038;-72
2022/04/03 03:50:53;;;;;;;7.70;5.45;;;0.40;99.90;;;-0.42;100.00;97770.69;5008423;28;20049;-73
2022/04/03 03:53:21;;;;;;;8.45;5.72;;;0.50;99.90;;;-0.42;100.00;97768.13;5006440;28;20077;-73
2022/04/03 03:55:49;;;;;;;11.35;6.20;;;0.40;99.90;;;-0.35;100.00;97767.31;5002322;28;20045;-73
2022/04/03 03:58:16;;;;;;;8.52;5.47;;;0.50;99.90;;;-0.35;100.00;97774.13;4997794;28;20050;-73
2022/04/03 04:00:44;;;;;;;8.88;5.60;;;0.50;99.90;;;-0.50;100.00;97767.25;5000908;28;20106;-73
2022/04/03 04:03:12;;;;;;;8.90;6.25;;;0.40;99.90;;;-0.43;100.00;97767.28;5002542;28;20038;-73
2022/04/03 04:05:40;;;;;;;8.68;5.50;;;0.40;99.90;;;-0.38;100.00;97769.00;5026578;28;20046;-72
2022/04/03 04:08:08;;;;;;;8.50;4.90;;;0.50;99.90;;;-0.38;100.00;97767.31;5001669;28;20041;-72
2022/04/03 04:10:35;;;;;;;9.40;5.57;;;0.50;99.90;;;-0.34;100.00;97775.81;5033797;28;20077;-73
2022/04/03 04:13:03;;;;;;;9.63;5.60;;;0.50;99.90;;;-0.27;100.00;97777.56;4999123;28;20083;-74
2022/04/03 04:15:30;;;;;;;9.27;5.13;;;0.50;99.90;;;-0.29;100.00;97776.69;5006656;28;20538;-73
2022/04/03 04:17:57;;;;;;;9.65;5.22;;;0.60;99.90;;;-0.24;100.00;97785.22;5007252;28;20522;-74
2022/04/03 04:20:24;;;;;;;9.68;4.80;;;0.60;99.90;;;-0.20;100.00;97769.06;5004087;28;20092;-73
2022/04/03 04:22:54;;;;;;;8.00;5.00;;;0.60;99.90;;;-0.19;100.00;97785.22;5002642;28;20072;-74
2022/04/03 04:25:21;;;;;;;12.40;5.70;;;0.60;99.90;;;-0.36;100.00;97780.06;4999177;28;20403;-74
2022/04/03 04:27:48;;;;;;;8.38;5.38;;;0.60;99.90;;;-0.44;100.00;97787.69;5014527;28;20065;-73
2022/04/03 04:30:16;;;;;;;10.73;5.65;;;0.50;99.90;;;-0.41;100.00;97790.25;5001866;28;20070;-74
2022/04/03 04:32:43;;;;;;;10.88;5.90;;;0.50;99.90;;;-0.45;100.00;97791.09;5005027;28;20124;-74
2022/04/03 04:35:10;;;;;;;8.60;5.45;;;0.50;99.90;;;-0.48;100.00;97794.47;5000850;28;20547;-74
2022/04/03 04:37:37;;;;;;;7.15;5.03;;;0.40;99.90;;;-0.44;100.00;97790.22;5001889;28;20054;-73
2022/04/03 04:40:06;;;;;;;10.00;5.30;;;0.40;99.90;;;-0.40;100.00;97786.00;5003972;28;20415;-74
2022/04/03 04:42:33;;;;;;;8.45;5.22;;;0.40;99.90;;;-0.44;100.00;97795.31;5001844;28;20145;-74
2022/04/03 04:45:00;;;;;;;8.75;5.38;;;0.40;99.90;;;-0.46;100.00;97794.47;4992033;28;20069;-74
2022/04/03 04:47:27;;;;;;;7.75;4.55;;;0.40;99.90;;;-0.52;100.00;97802.09;5004238;28;20077;-74
2022/04/03 04:49:54;;;;;;;11.77;5.20;;;0.40;99.90;;;-0.61;100.00;97807.16;4999382;28;20443;-73
2022/04/03 04:52:21;;;;;;;7.13;5.05;;;0.30;99.90;;;-0.54;100.00;97806.34;4995493;28;20043;-75
2022/04/03 04:54:49;;;;;;;9.32;5.45;;;0.30;99.90;;;-0.62;100.00;97808.84;5001734;28;20092;-73
2022/04/03 04:57:16;;;;;;;9.15;5.50;;;0.30;99.90;;;-0.62;100.00;97808.84;5006324;28;20103;-74
2022/04/03 04:59:43;;;;;;;7.93;4.82;;;0.20;99.90;;;-0.68;100.00;97809.66;5001844;28;20078;-75
2022/04/03 05:02:10;;;;;;;9.52;5.22;;;0.20;99.90;;;-0.60;100.00;97811.41;5002315;28;20133;-74
2022/04/03 05:04:37;;;;;;;8.35;5.43;;;0.20;99.90;;;-0.65;100.00;97809.66;5000352;28;20506;-73
2022/04/03 05:07:04;;;;;;;8.00;5.40;;;0.20;99.90;;;-0.72;100.00;97804.53;5001049;28;20125;-73
2022/04/03 05:09:32;;;;;;;7.30;5.22;;;0.20;99.90;;;-0.72;100.00;97815.59;5006789;28;20125;-73
2022/04/03 05:11:59;;;;;;;11.63;6.05;;;0.20;99.90;;;-0.72;100.00;97817.28;5001569;28;20050;-74
2022/04/03 05:14:27;;;;;;;9.57;5.32;;;0.20;99.90;;;-0.78;100.00;97818.09;5005198;28;20184;-72
2022/04/03 05:16:54;;;;;;;7.47;5.38;;;0.10;99.90;;;-0.84;100.00;97823.16;5003100;28;20077;-74
2022/04/03 05:19:24;;;;;;;9.40;5.70;;;0.10;99.90;;;-0.80;100.00;97829.97;4982413;28;20050;-73
2022/04/03 05:21:53;;;;;;;9.38;5.03;;;0.00;99.90;;;-0.99;100.00;97826.44;4996890;28;20072;-73
2022/04/03 05:24:20;;;;;;;7.90;5.50;;;0.00;99.90;;;-0.82;100.00;97825.69;5001988;28;20053;-72
2022/04/03 05:26:47;;;;;;;9.82;5.70;;;0.00;99.90;;;-0.97;100.00;97826.47;5006689;28;20046;-74
2022/04/03 05:29:14;;;;;;;8.30;5.53;;;-0.10;99.90;;;-0.97;100.00;97831.56;4999505;28;20070;-74
2022/04/03 05:31:43;;;;;;;8.63;5.70;;;-0.10;99.90;;;-0.94;100.00;97831.56;4997757;28;20069;-72
2022/04/03 05:34:10;;;;;;;8.70;6.03;;;-0.10;99.90;;;-1.00;100.00;97840.03;4996416;28;20105;-74
2022/04/03 05:36:38;;;;;;;9.55;5.93;;;-0.10;99.90;;;-1.07;100.00;97838.28;5035764;28;20046;-75
2022/04/03 05:39:05;;;;;;;8.70;6.20;;;-0.10;99.90;;;-1.10;100.00;97850.97;5002310;28;20287;-74
2022/04/03 05:41:33;;;;;;;7.82;5.70;;;-0.20;99.90;;;-1.15;100.00;97850.94;4998664;28;20121;-73
2022/04/03 05:44:01;;;;;;;10.10;5.85;;;-0.20;99.90;;;-1.11;100.00;97860.34;5013870;28;20134;-73
2022/04/03 05:46:29;;;;;;;9.65;6.00;;;-0.20;99.90;;;-1.19;100.00;97848.38;4999414;28;20050;-73
2022/04/03 05:48:56;;;;;;;8.80;5.30;;;-0.20;99.90;;;-1.12;100.00;97848.44;5004269;28;20134;-73
2022/04/03 05:51:23;;;;;;;10.27;6.93;;;-0.20;99.90;;;-1.16;100.00;97850.97;4988787;28;20122;-74
2022/04/03 05:53:50;;;;;;;8.32;5.18;;;-0.20;99.90;;;-1.17;100.00;97854.31;5005079;28;20070;-74
2022/04/03 05:56:18;;;;;;;9.55;5.40;;;-0.20;99.90;;;-1.09;100.00;97852.72;5005175;28;20069;-73
2022/04/03 05:58:45;;;;;;;9.15;5.60;;;-0.20;99.90;;;-1.06;100.00;97853.56;5005087;28;20095;-75
2022/04/03 06:01:13;;;;;;;10.85;5.45;;;-0.10;99.90;;;-1.06;100.00;97858.66;5031047;28;20050;-74
2022/04/03 06:03:40;;;;;;;7.78;4.88;;;-0.10;99.90;;;-0.98;100.00;97853.66;5003158;28;20070;-73
2022/04/03 06:06:07;;;;;;;12.80;5.05;;;-0.10;99.90;;;-1.13;100.00;97862.00;5009905;28;20125;-73
2022/04/03 06:08:34;;;;;;;10.18;5.40;;;0.00;99.90;;;-0.98;100.00;97861.28;5003009;28;20078;-73
2022/04/03 06:11:01;;;;;;;8.90;5.38;;;-0.10;99.90;;;-1.00;100.00;97869.75;5002114;28;20070;-72
2022/04/03 06:13:30;;;;;;;7.22;4.82;;;0.00;99.90;;;-0.92;100.00;97863.03;4987291;28;20153;-73
2022/04/03 06:15:57;;;;;;;11.40;5.10;;;0.10;99.90;;;-0.93;100.00;97866.41;5007017;28;20444;-73
2022/04/03 06:18:24;;;;;;;7.75;5.35;;;0.10;99.90;;;-0.86;100.00;97869.00;5003361;28;20504;-72
2022/04/03 06:20:51;;;;;;;9.52;4.85;;;0.10;99.90;;;-0.95;100.00;97880.84;4994107;28;20748;-74
2022/04/03 06:23:22;;;;;;;7.22;4.78;;;0.10;99.90;;;-0.83;100.00;97874.97;5004816;28;20184;-73
2022/04/03 06:25:57;;;;;;;9.43;5.20;;;0.20;99.90;;;-0.72;100.00;97879.31;5020161;28;20089;-74
2022/04/03 06:28:27;;;;;;;6.60;4.82;;;0.20;99.90;;;-0.80;100.00;97882.63;5007037;28;20117;-74
2022/04/03 06:30:56;;;;;;;6.18;4.32;;;0.30;99.90;;;-0.56;100.00;97885.38;4986937;28;20070;-73
2022/04/03 06:33:24;;;;;;;8.40;5.47;;;0.40;99.90;;;-0.71;100.00;97887.81;5003165;28;20471;-73
2022/04/03 06:35:51;;;;;;;8.93;5.20;;;0.40;99.90;;;-0.58;100.00;97887.03;4999649;28;20081;-73
2022/04/03 06:38:18;;;;;;;8.88;5.20;;;0.40;99.90;;;-0.53;100.00;97885.38;5019432;28;20132;-72
2022/04/03 06:40:58;;;;;;;7.97;5.10;;;0.50;99.90;;;-0.46;100.00;97884.59;4992572;28;20071;-73
2022/04/03 06:43:29;;;;;;;9.93;5.03;;;0.60;99.90;;;-0.45;100.00;97888.00;5005144;28;20443;-73
2022/04/03 06:45:57;;;;;;;7.30;4.70;;;0.60;99.90;;;-0.58;100.00;97888.75;5002018;28;20085;-73
2022/04/03 06:48:26;;;;;;;9.10;5.45;;;0.50;99.90;;;-0.46;100.00;97891.38;5014066;28;20074;-73
2022/04/03 06:50:53;;;;;;;8.73;5.30;;;0.70;99.90;;;-0.34;100.00;97891.47;5001611;28;20128;-73
2022/04/03 06:53:20;;;;;;;7.28;5.00;;;0.70;99.90;;;-0.26;100.00;97904.25;5002294;28;20092;-73
2022/04/03 06:55:48;;;;;;;8.00;4.40;;;0.80;99.90;;;-0.29;100.00;97902.53;5003804;28;20136;-74
2022/04/03 06:58:15;;;;;;;8.20;4.65;;;0.80;99.90;;;-0.14;100.00;97908.56;4998906;28;20497;-73
2022/04/03 07:00:42;;;;;;;12.75;5.60;;;0.90;99.90;;;-0.11;100.00;97900.94;5002519;28;20057;-74
2022/04/03 07:03:09;;;;;;;14.65;8.48;;;1.00;99.90;;;-0.23;100.00;97912.78;5002343;28;21196;-74
2022/04/03 07:05:37;;;;;;;36.08;14.98;;;0.90;99.90;;;0.12;100.00;97909.53;5002563;28;20058;-74
2022/04/03 07:08:04;;;;;;;11.57;6.93;;;1.10;99.90;;;0.16;100.00;97911.25;5001525;28;20050;-75
2022/04/03 07:10:31;;;;;;;13.93;8.57;;;1.20;99.90;;;0.26;100.00;97916.41;5000227;28;20050;-74
2022/04/03 07:12:59;;;;;;;10.00;4.72;;;1.30;99.90;;;0.08;100.00;97914.63;5000123;28;20145;-74
2022/04/03 07:15:26;;;;;;;11.18;5.78;;;1.30;99.90;;;0.25;100.00;97918.09;5002079;28;20054;-74
2022/04/03 07:17:53;;;;;;;15.23;8.38;;;1.40;99.90;;;0.19;100.00;97918.91;5007257;28;20070;-74
2022/04/03 07:20:21;;;;;;;11.25;6.22;;;1.50;99.90;;;0.30;100.00;97913.88;5004253;28;20054;-73
2022/04/03 07:22:49;;;;;;;10.55;8.00;;;1.50;99.90;;;0.47;100.00;97920.72;5003817;28;20072;-71
2022/04/03 07:25:21;;;;;;;8.68;4.57;;;1.60;99.90;;;0.44;100.00;97919.00;4984824;28;20064;-71
2022/04/03 07:27:47;;;;;;;8.48;4.25;;;1.70;99.90;;;0.59;100.00;97921.63;4976784;28;20057;-72
2022/04/03 07:30:15;;;;;;;7.43;3.85;;;1.70;99.90;;;0.69;100.00;97924.19;4994512;28;20136;-71
2022/04/03 07:32:42;;;;;;;7.70;4.25;;;1.70;99.90;;;0.50;100.00;97920.72;4995868;28;20073;-73
2022/04/03 07:35:11;;;;;;;8.15;4.45;;;1.70;99.90;;;0.58;100.00;97919.91;4994458;28;20599;-74
2022/04/03 07:37:39;;;;;;;8.55;3.85;;;1.70;99.90;;;0.62;100.00;97926.72;4991933;28;20129;-72
2022/04/03 07:40:08;;;;;;;7.70;3.97;;;1.70;99.90;;;0.82;100.00;97925.91;4995570;28;20042;-73
2022/04/03 07:42:36;;;;;;;9.32;4.00;;;1.80;99.90;;;0.89;100.00;97925.09;4997787;28;20077;-72
2022/04/03 07:45:07;;;;;;;7.03;3.60;;;1.90;99.90;;;0.82;100.00;97925.91;5031521;28;20124;-74
2022/04/03 07:47:34;;;;;;;10.05;4.57;;;2.10;99.90;;;0.96;100.00;97934.47;4979361;28;20138;-73
2022/04/03 07:50:04;;;;;;;9.95;4.53;;;2.00;99.90;;;0.77;100.00;97928.44;4997494;28;20057;-73
2022/04/03 07:52:32;;;;;;;6.78;3.97;;;1.90;99.90;;;0.78;100.00;97942.94;4996942;28;20093;-73
2022/04/03 07:55:00;;;;;;;7.68;4.57;;;1.90;99.90;;;1.11;100.00;97945.53;5007434;28;20042;-68
2022/04/03 07:57:27;;;;;;;6.80;4.00;;;2.10;99.90;;;1.03;100.00;97943.84;5005720;28;20133;-70
2022/04/03 07:59:54;;;;;;;8.18;4.28;;;2.20;99.90;;;1.12;100.00;97937.88;5004827;28;20061;-69
2022/04/03 08:02:21;;;;;;;6.10;3.30;;;2.30;99.90;;;1.20;100.00;97941.28;4999389;28;20078;-70
2022/04/03 08:04:48;;;;;;;6.35;3.95;;;2.30;99.90;;;1.23;100.00;97941.31;4986493;28;20069;-70
2022/04/03 08:07:15;;;;;;;20.08;11.55;;;2.30;99.90;;;1.17;100.00;97940.44;4997489;28;20077;-69
2022/04/03 08:09:42;;;;;;;9.68;4.65;;;2.40;99.90;;;1.56;100.00;97944.69;5002061;28;20440;-69
2022/04/03 08:12:10;;;;;;;7.63;4.40;;;2.60;99.90;;;1.86;100.00;97948.06;5000114;28;20119;-70
2022/04/03 08:14:38;;;;;;;10.35;5.05;;;3.10;99.90;;;2.18;100.00;97947.13;4999799;28;20054;-68
2022/04/03 08:17:05;;;;;;;6.10;3.45;;;3.40;99.90;;;2.71;100.00;97951.16;5000481;28;20050;-70
2022/04/03 08:19:32;;;;;;;6.63;4.05;;;3.80;99.90;;;3.02;100.00;97948.44;4997885;28;20050;-70
2022/04/03 08:22:00;;;;;;;7.15;3.80;;;4.20;99.90;;;3.31;100.00;97945.66;4994005;28;20189;-70
2022/04/03 08:24:27;;;;;;;8.98;3.97;;;4.50;99.90;;;3.35;100.00;97948.19;4997690;28;20049;-70
2022/04/03 08:26:55;;;;;;;6.03;3.78;;;4.50;99.90;;;3.58;100.00;97948.84;5002246;28;20562;-71
2022/04/03 08:29:22;;;;;;;9.15;3.25;;;4.60;99.90;;;3.51;100.00;97956.63;4999565;28;20121;-71
2022/04/03 08:31:49;;;;;;;5.80;3.13;;;4.60;99.90;;;3.63;100.00;97949.69;5000730;28;20117;-71
2022/04/03 08:34:17;;;;;;;7.10;3.17;;;4.70;99.90;;;3.68;100.00;97956.47;4994841;28;20060;-70
2022/04/03 08:37:05;;;;;;;7.63;3.00;;;4.60;99.90;;;4.33;100.00;97948.06;5001847;28;20069;-70
2022/04/03 08:39:32;;;;;;;4.63;2.17;;;4.90;99.90;;;4.05;100.00;97947.53;4995989;28;20062;-70
2022/04/03 08:42:00;;;;;;;7.07;2.42;;;4.90;99.90;;;4.33;100.00;97946.38;4999686;28;20093;-71
2022/04/03 08:44:27;;;;;;;4.78;2.40;;;5.10;99.90;;;5.94;100.00;97948.28;4998947;28;20061;-70
2022/04/03 08:46:58;;;;;;;6.00;2.35;;;5.80;99.90;;;5.20;100.00;97958.91;4995720;28;20558;-71
2022/04/03 08:49:27;;;;;;;5.50;2.38;;;6.00;99.40;;;4.92;100.00;97961.03;4998549;28;20265;-71
2022/04/03 08:51:54;;;;;;;5.57;2.20;;;5.80;99.60;;;3.77;100.00;97958.09;4994585;28;20077;-70
2022/04/03 08:54:22;;;;;;;4.80;1.90;;;5.10;97.70;;;2.99;100.00;97968.94;4993286;28;20125;-71
2022/04/03 08:56:49;;;;;;;4.32;1.85;;;4.40;99.70;;;2.49;100.00;97968.38;4996867;28;20056;-71
2022/04/03 08:59:16;;;;;;;8.43;2.00;;;3.80;96.70;;;2.40;100.00;97969.25;4992580;28;20058;-70
2022/04/03 09:01:42;;;;;;;5.43;2.17;;;3.70;98.20;;;2.49;100.00;97963.25;4994621;28;20160;-70
2022/04/03 09:04:10;;;;;;;6.60;2.30;;;3.60;99.40;;;2.46;100.00;97965.78;5034554;28;20081;-70
2022/04/03 09:06:57;;;;;;;4.15;1.90;;;3.60;98.30;;;3.12;100.00;97971.44;4999129;28;20058;-71
2022/04/03 09:09:27;;;;;;;5.47;1.50;;;3.80;96.80;;;2.83;100.00;97970.75;4998547;28;20120;-71
2022/04/03 09:12:07;;;;;;;8.32;2.10;;;3.80;94.20;;;3.92;100.00;97969.94;4994485;28;20061;-69
2022/04/03 09:14:34;;;;;;;2.97;1.38;;;4.20;94.00;;;3.60;100.00;97983.91;4996908;28;20060;-69
2022/04/03 09:17:02;;;;;;;4.18;1.83;;;4.60;94.80;;;2.92;100.00;97986.94;4994333;28;20101;-70
2022/04/03 09:19:34;;;;;;;6.00;2.15;;;4.50;93.60;;;2.61;100.00;97983.69;4993564;28;20579;-70
2022/04/03 09:22:02;;;;;;;2.95;1.50;;;3.90;94.30;;;3.69;100.00;97978.69;4997346;28;20480;-70
2022/04/03 09:24:29;;;;;;;4.85;1.60;;;4.30;95.30;;;3.55;100.00;97975.41;4996029;28;20076;-69
2022/04/03 09:27:02;;;;;;;2.58;1.52;;;4.30;93.60;;;4.01;100.00;97969.00;5003701;28;20552;-70
2022/04/03 09:29:29;;;;;;;;;;;4.60;90.90;;;5.31;100.00;97971.63;5005436;28;20049;-69
2022/04/03 09:32:02;;;;;;;2.28;1.27;;;5.50;91.60;;;6.00;100.00;97976.53;5002961;28;19925;-69
2022/04/03 09:34:33;;;;;;;2.88;1.55;;;;;;;7.11;100.00;97963.97;5001619;28;20419;-69
2022/04/03 09:37:05;;;;;;;3.40;1.52;;;6.90;90.10;;;8.23;95.74;97958.63;5003691;28;20050;-69
2022/04/03 09:39:32;;;;;;;3.95;1.65;;;7.60;86.50;;;8.32;89.39;97957.53;5006281;28;20046;-69
2022/04/03 09:42:08;;;;;;;3.15;1.60;;;8.00;84.90;;;7.91;84.95;97970.69;5000696;28;20563;-69
2022/04/03 09:44:42;;;;;;;2.13;1.05;;;8.40;81.60;;;6.93;83.40;97967.81;5005636;28;20077;-69
2022/04/03 09:47:27;;;;;;;4.18;1.52;;;8.20;77.80;;;5.52;83.43;97979.03;5003789;28;20134;-69
2022/04/03 09:50:00;;;;;;;2.40;1.45;;;7.40;75.20;;;5.02;90.99;97981.50;5006623;28;20104;-70
2022/04/03 09:52:33;;;;;;;;;;;6.40;80.20;;;5.44;89.06;97979.13;5019687;28;20099;-69
2022/04/03 09:55:05;;;;;;;;;;;6.40;80.70;;;5.14;88.66;97982.19;5035258;28;19961;-69
2022/04/03 09:57:33;;;;;;;3.10;1.30;;;6.20;80.10;;;4.33;93.76;97981.50;5000051;28;20000;-69
2022/04/03 10:00:00;;;;;;;3.53;1.48;;;5.70;82.00;;;4.68;96.29;97982.81;5003747;28;20053;-69
2022/04/03 10:02:27;;;;;;;2.65;1.40;;;5.90;83.60;;;6.18;85.03;97977.06;4996565;28;20061;-69
2022/04/03 10:04:55;;;;;;;2.75;1.20;;;6.50;80.20;;;6.84;76.97;97968.00;4995656;28;20460;-69
2022/04/03 10:07:24;;;;;;;2.60;1.25;;;7.00;77.50;;;7.79;74.12;97957.22;4998586;28;20103;-69
2022/04/03 10:09:53;;;;;;;4.10;1.20;;;;;;;8.75;67.17;97959.78;4993594;28;20113;-69
2022/04/03 10:12:22;;;;;;;2.22;1.20;;;8.50;74.90;;;7.74;69.67;97954.75;4997471;28;20480;-70
2022/04/03 10:14:52;;;;;;;2.97;1.30;;;8.20;74.80;;;7.32;65.69;97957.47;4994356;28;20136;-70
2022/04/03 10:17:20;;;;;;;2.28;1.30;;;8.30;72.10;;;7.86;59.15;97953.56;4999586;28;20562;-70
2022/04/03 10:19:48;;;;;;;2.13;1.00;;;8.20;71.60;;;8.31;65.47;97950.66;4997556;28;20042;-70
2022/04/03 10:22:27;;;;;;;3.13;1.15;;;8.50;74.70;;;7.08;64.04;97954.56;4997548;28;20456;-69
2022/04/03 10:25:04;;;;;;;4.07;1.20;;;8.10;72.10;;;8.02;70.83;97952.28;4993529;28;20643;-69